SWR7A LSZH-LHBP
Flight info
| Callsign | SWR7A |
|---|---|
| Flight time | 1h 15m |
| Altitude | 29000 |
| Route | DEGES Z2 TUNUM/N0419F350 Z209 BIRGI DCT SETAL DCT GOTAR DCT SIRDU DCT OGVUN DCT VAJDI |
| Aircraft | A20N/M-SDE2E3FGHIJ1RWXY/LB1 |
Departure
| Time | 2026-05-07 16:01 |
|---|---|
| Airport | Zürich Airport (LSZH) |
Arrival
| Time | 2026-05-07 17:16 |
|---|---|
| Airport | Budapest Liszt Ferenc International Airport (LHBP) |
| Time | Latitude | Longitude | Altitude | Speed | Heading |
|---|---|---|---|---|---|
| 2026-05-07 14:51 | 47.44662 | 8.55995 | 1402 ft | 0 kts | 244° |
| 2026-05-07 15:51 | 47.44664 | 8.56003 | 1396 ft | 3 kts | 245° |
| 2026-05-07 15:51 | 47.44675 | 8.56039 | 1408 ft | 4 kts | 250° |
| 2026-05-07 15:52 | 47.44682 | 8.56078 | 1407 ft | 4 kts | 265° |
| 2026-05-07 15:52 | 47.44679 | 8.56113 | 1403 ft | 4 kts | 321° |
| 2026-05-07 15:52 | 47.44675 | 8.56118 | 1404 ft | 1 kts | 335° |
| 2026-05-07 15:55 | 47.44678 | 8.56116 | 1397 ft | 2 kts | 335° |
| 2026-05-07 15:55 | 47.44704 | 8.56098 | 1399 ft | 6 kts | 334° |
| 2026-05-07 15:55 | 47.44754 | 8.56062 | 1404 ft | 10 kts | 334° |
| 2026-05-07 15:55 | 47.44825 | 8.56013 | 1402 ft | 12 kts | 335° |
| 2026-05-07 15:56 | 47.44902 | 8.55961 | 1401 ft | 13 kts | 335° |
| 2026-05-07 15:56 | 47.44948 | 8.55863 | 1402 ft | 13 kts | 279° |
| 2026-05-07 15:56 | 47.44992 | 8.55750 | 1407 ft | 13 kts | 326° |
| 2026-05-07 15:56 | 47.45066 | 8.55695 | 1412 ft | 12 kts | 334° |
| 2026-05-07 15:57 | 47.45147 | 8.55639 | 1409 ft | 14 kts | 335° |
| 2026-05-07 15:57 | 47.45237 | 8.55581 | 1413 ft | 15 kts | 343° |
| 2026-05-07 15:57 | 47.45336 | 8.55540 | 1411 ft | 15 kts | 335° |
| 2026-05-07 15:57 | 47.45437 | 8.55465 | 1403 ft | 18 kts | 335° |
| 2026-05-07 15:58 | 47.45530 | 8.55500 | 1411 ft | 14 kts | 89° |
| 2026-05-07 15:58 | 47.45516 | 8.55643 | 1412 ft | 14 kts | 96° |
| 2026-05-07 15:58 | 47.45505 | 8.55801 | 1408 ft | 16 kts | 96° |
| 2026-05-07 15:58 | 47.45493 | 8.55980 | 1409 ft | 18 kts | 95° |
| 2026-05-07 15:59 | 47.45480 | 8.56175 | 1407 ft | 20 kts | 88° |
| 2026-05-07 15:59 | 47.45547 | 8.56338 | 1412 ft | 18 kts | 51° |
| 2026-05-07 15:59 | 47.45594 | 8.56497 | 1414 ft | 18 kts | 93° |
| 2026-05-07 15:59 | 47.45581 | 8.56672 | 1418 ft | 17 kts | 95° |
| 2026-05-07 16:00 | 47.45569 | 8.56842 | 1420 ft | 15 kts | 94° |
| 2026-05-07 16:00 | 47.45581 | 8.56994 | 1422 ft | 13 kts | 52° |
| 2026-05-07 16:00 | 47.45651 | 8.56992 | 1424 ft | 12 kts | 307° |
| 2026-05-07 16:00 | 47.45687 | 8.56648 | 1417 ft | 69 kts | 276° |
| 2026-05-07 16:01 | 47.45760 | 8.55614 | 1404 ft | 131 kts | 276° |
| 2026-05-07 16:01 | 47.45860 | 8.54028 | 1470 ft | 172 kts | 277° |
| 2026-05-07 16:01 | 47.45970 | 8.52211 | 1984 ft | 182 kts | 277° |
| 2026-05-07 16:01 | 47.46112 | 8.50299 | 2642 ft | 191 kts | 277° |
| 2026-05-07 16:02 | 47.46237 | 8.48368 | 3441 ft | 190 kts | 267° |
| 2026-05-07 16:02 | 47.45759 | 8.46477 | 3846 ft | 210 kts | 232° |
| 2026-05-07 16:02 | 47.44744 | 8.45095 | 4368 ft | 221 kts | 222° |
| 2026-05-07 16:02 | 47.43786 | 8.43311 | 5181 ft | 221 kts | 247° |
| 2026-05-07 16:03 | 47.43303 | 8.41178 | 6170 ft | 219 kts | 254° |
| 2026-05-07 16:03 | 47.42872 | 8.38987 | 7054 ft | 222 kts | 255° |
| 2026-05-07 16:03 | 47.42513 | 8.37563 | 7598 ft | 225 kts | 241° |
| 2026-05-07 16:03 | 47.41510 | 8.35806 | 8480 ft | 227 kts | 217° |
| 2026-05-07 16:04 | 47.40051 | 8.34888 | 9344 ft | 232 kts | 189° |
| 2026-05-07 16:04 | 47.38436 | 8.35131 | 10162 ft | 241 kts | 160° |
| 2026-05-07 16:04 | 47.37050 | 8.36587 | 10917 ft | 252 kts | 130° |
| 2026-05-07 16:04 | 47.36301 | 8.38940 | 11652 ft | 260 kts | 100° |
| 2026-05-07 16:05 | 47.36407 | 8.41608 | 12350 ft | 267 kts | 71° |
| 2026-05-07 16:05 | 47.37369 | 8.43926 | 13068 ft | 268 kts | 41° |
| 2026-05-07 16:05 | 47.38952 | 8.45343 | 13773 ft | 268 kts | 16° |
| 2026-05-07 16:05 | 47.40722 | 8.46248 | 14410 ft | 272 kts | 24° |
| 2026-05-07 16:06 | 47.42251 | 8.47912 | 15076 ft | 276 kts | 47° |
| 2026-05-07 16:06 | 47.43329 | 8.49800 | 15461 ft | 289 kts | 50° |
| 2026-05-07 16:06 | 47.44521 | 8.52073 | 15656 ft | 309 kts | 54° |
| 2026-05-07 16:06 | 47.45524 | 8.54996 | 15856 ft | 330 kts | 72° |
| 2026-05-07 16:07 | 47.45932 | 8.58393 | 16063 ft | 349 kts | 88° |
| 2026-05-07 16:07 | 47.46037 | 8.62129 | 16277 ft | 369 kts | 88° |
| 2026-05-07 16:07 | 47.46155 | 8.66000 | 16667 ft | 381 kts | 88° |
| 2026-05-07 16:07 | 47.46287 | 8.69919 | 17384 ft | 383 kts | 87° |
| 2026-05-07 16:08 | 47.46429 | 8.73878 | 18057 ft | 387 kts | 87° |
| 2026-05-07 16:08 | 47.46576 | 8.77872 | 18670 ft | 391 kts | 87° |
| 2026-05-07 16:08 | 47.46590 | 8.81851 | 19243 ft | 394 kts | 94° |
| 2026-05-07 16:08 | 47.46221 | 8.85915 | 19839 ft | 397 kts | 103° |
| 2026-05-07 16:09 | 47.45624 | 8.89884 | 20416 ft | 400 kts | 103° |
| 2026-05-07 16:09 | 47.45033 | 8.93915 | 20990 ft | 403 kts | 103° |
| 2026-05-07 16:09 | 47.44451 | 8.97995 | 21564 ft | 407 kts | 103° |
| 2026-05-07 16:09 | 47.43867 | 9.02110 | 22116 ft | 410 kts | 103° |
| 2026-05-07 16:10 | 47.43276 | 9.06247 | 22669 ft | 414 kts | 103° |
| 2026-05-07 16:10 | 47.42674 | 9.10424 | 23234 ft | 417 kts | 103° |
| 2026-05-07 16:10 | 47.42066 | 9.14629 | 23731 ft | 421 kts | 102° |
| 2026-05-07 16:10 | 47.41699 | 9.18954 | 24183 ft | 425 kts | 92° |
| 2026-05-07 16:11 | 47.41803 | 9.23230 | 24614 ft | 429 kts | 83° |
| 2026-05-07 16:11 | 47.42373 | 9.27639 | 25047 ft | 433 kts | 77° |
| 2026-05-07 16:11 | 47.43052 | 9.32000 | 25487 ft | 436 kts | 77° |
| 2026-05-07 16:11 | 47.43723 | 9.36386 | 25923 ft | 439 kts | 77° |
| 2026-05-07 16:12 | 47.44385 | 9.40760 | 26314 ft | 443 kts | 78° |
| 2026-05-07 16:12 | 47.45063 | 9.45258 | 26728 ft | 446 kts | 78° |
| 2026-05-07 16:12 | 47.45737 | 9.49747 | 27133 ft | 448 kts | 78° |
| 2026-05-07 16:12 | 47.46412 | 9.54256 | 27518 ft | 452 kts | 78° |
| 2026-05-07 16:13 | 47.46932 | 9.58821 | 27899 ft | 454 kts | 85° |
| 2026-05-07 16:13 | 47.47065 | 9.63514 | 28258 ft | 455 kts | 92° |
| 2026-05-07 16:13 | 47.46846 | 9.68190 | 28616 ft | 457 kts | 96° |
| 2026-05-07 16:13 | 47.46580 | 9.72901 | 28942 ft | 460 kts | 96° |
| 2026-05-07 16:14 | 47.46322 | 9.77624 | 29019 ft | 461 kts | 96° |
| 2026-05-07 16:14 | 47.45805 | 9.87077 | 29015 ft | 460 kts | 96° |
| 2026-05-07 16:15 | 47.45280 | 9.96437 | 29023 ft | 460 kts | 96° |
| 2026-05-07 16:15 | 47.44742 | 10.05876 | 29017 ft | 460 kts | 96° |
| 2026-05-07 16:16 | 47.44197 | 10.15289 | 29025 ft | 461 kts | 96° |
| 2026-05-07 16:16 | 47.43828 | 10.19793 | 29023 ft | 459 kts | 102° |
| 2026-05-07 16:17 | 47.42615 | 10.28721 | 29021 ft | 459 kts | 103° |
| 2026-05-07 16:17 | 47.41368 | 10.37956 | 29029 ft | 459 kts | 103° |
| 2026-05-07 16:18 | 47.40115 | 10.47178 | 29029 ft | 458 kts | 103° |
| 2026-05-07 16:18 | 47.38846 | 10.56413 | 29007 ft | 460 kts | 103° |
| 2026-05-07 16:19 | 47.37567 | 10.65655 | 29004 ft | 460 kts | 104° |
| 2026-05-07 16:19 | 47.36281 | 10.74901 | 29019 ft | 460 kts | 104° |
| 2026-05-07 16:20 | 47.34989 | 10.84129 | 29014 ft | 459 kts | 104° |
| 2026-05-07 16:20 | 47.33686 | 10.93368 | 29004 ft | 460 kts | 104° |
| 2026-05-07 16:21 | 47.32379 | 11.02581 | 28995 ft | 459 kts | 104° |
| 2026-05-07 16:21 | 47.31065 | 11.11784 | 29000 ft | 458 kts | 104° |
| 2026-05-07 16:22 | 47.29744 | 11.20990 | 28994 ft | 459 kts | 104° |
| 2026-05-07 16:22 | 47.28412 | 11.30212 | 28993 ft | 460 kts | 104° |
| 2026-05-07 16:23 | 47.27084 | 11.39340 | 28993 ft | 461 kts | 105° |
| 2026-05-07 16:23 | 47.26012 | 11.48643 | 28993 ft | 464 kts | 93° |
| 2026-05-07 16:23 | 47.26227 | 11.53405 | 28995 ft | 468 kts | 82° |
| 2026-05-07 16:24 | 47.27044 | 11.58034 | 29001 ft | 471 kts | 72° |
| 2026-05-07 16:24 | 47.29135 | 11.67196 | 29002 ft | 471 kts | 72° |
| 2026-05-07 16:25 | 47.31217 | 11.76426 | 29008 ft | 472 kts | 73° |
| 2026-05-07 16:25 | 47.33272 | 11.85603 | 29016 ft | 471 kts | 73° |
| 2026-05-07 16:26 | 47.34522 | 11.95063 | 29012 ft | 468 kts | 89° |
| 2026-05-07 16:26 | 47.34279 | 12.04628 | 29010 ft | 466 kts | 96° |
| 2026-05-07 16:27 | 47.33893 | 12.14185 | 29018 ft | 467 kts | 96° |
| 2026-05-07 16:27 | 47.33500 | 12.23738 | 29024 ft | 468 kts | 96° |
| 2026-05-07 16:28 | 47.33094 | 12.33319 | 29026 ft | 469 kts | 97° |
| 2026-05-07 16:28 | 47.32674 | 12.42943 | 29019 ft | 469 kts | 97° |
| 2026-05-07 16:29 | 47.32249 | 12.52558 | 29023 ft | 471 kts | 97° |
| 2026-05-07 16:29 | 47.31814 | 12.62182 | 29026 ft | 470 kts | 97° |
| 2026-05-07 16:30 | 47.31371 | 12.71805 | 29019 ft | 471 kts | 97° |
| 2026-05-07 16:30 | 47.30920 | 12.81426 | 29014 ft | 470 kts | 97° |
| 2026-05-07 16:31 | 47.30461 | 12.91051 | 29013 ft | 471 kts | 97° |
| 2026-05-07 16:31 | 47.29993 | 13.00694 | 29020 ft | 471 kts | 98° |
| 2026-05-07 16:32 | 47.29517 | 13.10324 | 29016 ft | 470 kts | 98° |
| 2026-05-07 16:32 | 47.29037 | 13.19898 | 29019 ft | 469 kts | 98° |
| 2026-05-07 16:33 | 47.28547 | 13.29507 | 29014 ft | 469 kts | 98° |
| 2026-05-07 16:33 | 47.28053 | 13.38989 | 29007 ft | 467 kts | 98° |
| 2026-05-07 16:34 | 47.27549 | 13.48538 | 29007 ft | 466 kts | 98° |
| 2026-05-07 16:34 | 47.27039 | 13.58050 | 29004 ft | 466 kts | 98° |
| 2026-05-07 16:35 | 47.26518 | 13.67596 | 29012 ft | 467 kts | 98° |
| 2026-05-07 16:35 | 47.25992 | 13.77110 | 29001 ft | 465 kts | 98° |
| 2026-05-07 16:36 | 47.25548 | 13.85013 | 29004 ft | 467 kts | 98° |
| 2026-05-07 16:36 | 47.25007 | 13.94536 | 29006 ft | 466 kts | 98° |
| 2026-05-07 16:37 | 47.24460 | 14.04037 | 28994 ft | 466 kts | 98° |
| 2026-05-07 16:37 | 47.23901 | 14.13557 | 29000 ft | 467 kts | 98° |
| 2026-05-07 16:38 | 47.23338 | 14.23084 | 28989 ft | 467 kts | 98° |
| 2026-05-07 16:38 | 47.22421 | 14.32449 | 28992 ft | 466 kts | 103° |
| 2026-05-07 16:39 | 47.21388 | 14.41856 | 28988 ft | 465 kts | 103° |
| 2026-05-07 16:39 | 47.20347 | 14.51281 | 28986 ft | 466 kts | 103° |
| 2026-05-07 16:40 | 47.19288 | 14.60712 | 28990 ft | 467 kts | 103° |
| 2026-05-07 16:40 | 47.18215 | 14.70155 | 28993 ft | 468 kts | 103° |
| 2026-05-07 16:41 | 47.17134 | 14.79607 | 28991 ft | 469 kts | 104° |
| 2026-05-07 16:41 | 47.16044 | 14.89065 | 28994 ft | 469 kts | 104° |
| 2026-05-07 16:42 | 47.14946 | 14.98523 | 28980 ft | 469 kts | 104° |
| 2026-05-07 16:42 | 47.13850 | 15.07900 | 28969 ft | 468 kts | 104° |
| 2026-05-07 16:43 | 47.12737 | 15.17347 | 28949 ft | 469 kts | 104° |
| 2026-05-07 16:43 | 47.11616 | 15.26786 | 28942 ft | 469 kts | 104° |
| 2026-05-07 16:44 | 47.10488 | 15.36217 | 28941 ft | 469 kts | 104° |
| 2026-05-07 16:44 | 47.09353 | 15.45646 | 28933 ft | 469 kts | 104° |
| 2026-05-07 16:45 | 47.08207 | 15.55087 | 28934 ft | 469 kts | 104° |
| 2026-05-07 16:45 | 47.07063 | 15.64443 | 28932 ft | 469 kts | 104° |
| 2026-05-07 16:46 | 47.05901 | 15.73893 | 28932 ft | 469 kts | 104° |
| 2026-05-07 16:46 | 47.04733 | 15.83313 | 28933 ft | 469 kts | 104° |
| 2026-05-07 16:47 | 47.03556 | 15.92739 | 28929 ft | 469 kts | 104° |
| 2026-05-07 16:47 | 47.02373 | 16.02152 | 28932 ft | 470 kts | 104° |
| 2026-05-07 16:48 | 47.01180 | 16.11574 | 28929 ft | 470 kts | 104° |
| 2026-05-07 16:48 | 47.00353 | 16.21103 | 28932 ft | 477 kts | 91° |
| 2026-05-07 16:48 | 47.00743 | 16.25942 | 28928 ft | 481 kts | 79° |
| 2026-05-07 16:49 | 47.01715 | 16.30656 | 28936 ft | 483 kts | 72° |
| 2026-05-07 16:49 | 47.03937 | 16.39966 | 28940 ft | 483 kts | 72° |
| 2026-05-07 16:50 | 47.06134 | 16.49276 | 28935 ft | 483 kts | 72° |
| 2026-05-07 16:50 | 47.08309 | 16.58549 | 28942 ft | 483 kts | 73° |
| 2026-05-07 16:51 | 47.10488 | 16.67881 | 28951 ft | 483 kts | 73° |
| 2026-05-07 16:51 | 47.12659 | 16.77217 | 28947 ft | 483 kts | 73° |
| 2026-05-07 16:52 | 47.14826 | 16.86576 | 28943 ft | 483 kts | 73° |
| 2026-05-07 16:52 | 47.16980 | 16.95921 | 28956 ft | 483 kts | 73° |
| 2026-05-07 16:53 | 47.19126 | 17.05269 | 28959 ft | 482 kts | 73° |
| 2026-05-07 16:53 | 47.21260 | 17.14609 | 28966 ft | 482 kts | 73° |
| 2026-05-07 16:54 | 47.23387 | 17.23957 | 28951 ft | 482 kts | 73° |
| 2026-05-07 16:54 | 47.25517 | 17.33358 | 28968 ft | 481 kts | 73° |
| 2026-05-07 16:55 | 47.27798 | 17.42669 | 28937 ft | 482 kts | 70° |
| 2026-05-07 16:55 | 47.28981 | 17.47294 | 28626 ft | 482 kts | 70° |
| 2026-05-07 16:55 | 47.30154 | 17.51908 | 27992 ft | 482 kts | 70° |
| 2026-05-07 16:55 | 47.31323 | 17.56550 | 27237 ft | 482 kts | 71° |
| 2026-05-07 16:56 | 47.32474 | 17.61159 | 26711 ft | 475 kts | 71° |
| 2026-05-07 16:56 | 47.33609 | 17.65722 | 26167 ft | 469 kts | 71° |
| 2026-05-07 16:56 | 47.35824 | 17.74664 | 25072 ft | 459 kts | 71° |
| 2026-05-07 16:57 | 47.36909 | 17.79062 | 24530 ft | 454 kts | 71° |
| 2026-05-07 16:57 | 47.37849 | 17.83526 | 23982 ft | 448 kts | 79° |
| 2026-05-07 16:57 | 47.38326 | 17.87992 | 23382 ft | 442 kts | 88° |
| 2026-05-07 16:57 | 47.38362 | 17.92427 | 22884 ft | 433 kts | 95° |
| 2026-05-07 16:58 | 47.38256 | 17.96891 | 22362 ft | 426 kts | 94° |
| 2026-05-07 16:58 | 47.38167 | 18.01179 | 21849 ft | 421 kts | 94° |
| 2026-05-07 16:58 | 47.38078 | 18.05514 | 21336 ft | 415 kts | 94° |
| 2026-05-07 16:58 | 47.37990 | 18.09693 | 20838 ft | 410 kts | 94° |
| 2026-05-07 16:59 | 47.37898 | 18.13879 | 20338 ft | 406 kts | 95° |
| 2026-05-07 16:59 | 47.37805 | 18.18019 | 19843 ft | 401 kts | 95° |
| 2026-05-07 16:59 | 47.37710 | 18.22155 | 19343 ft | 398 kts | 95° |
| 2026-05-07 16:59 | 47.37493 | 18.26174 | 18855 ft | 391 kts | 103° |
| 2026-05-07 17:00 | 47.36766 | 18.30025 | 18369 ft | 383 kts | 115° |
| 2026-05-07 17:00 | 47.35568 | 18.33494 | 17870 ft | 375 kts | 125° |
| 2026-05-07 17:00 | 47.34221 | 18.36749 | 17397 ft | 370 kts | 124° |
| 2026-05-07 17:00 | 47.32901 | 18.39973 | 16932 ft | 365 kts | 124° |
| 2026-05-07 17:01 | 47.31613 | 18.43130 | 16482 ft | 361 kts | 124° |
| 2026-05-07 17:01 | 47.30327 | 18.46279 | 16031 ft | 357 kts | 124° |
| 2026-05-07 17:01 | 47.29052 | 18.49397 | 15579 ft | 354 kts | 124° |
| 2026-05-07 17:01 | 47.27771 | 18.52522 | 15131 ft | 351 kts | 124° |
| 2026-05-07 17:02 | 47.26530 | 18.55545 | 14701 ft | 347 kts | 124° |
| 2026-05-07 17:02 | 47.25283 | 18.58579 | 14268 ft | 345 kts | 125° |
| 2026-05-07 17:02 | 47.24027 | 18.61626 | 13867 ft | 357 kts | 125° |
| 2026-05-07 17:02 | 47.22721 | 18.64785 | 13676 ft | 363 kts | 124° |
| 2026-05-07 17:03 | 47.21412 | 18.67957 | 13290 ft | 364 kts | 124° |
| 2026-05-07 17:03 | 47.20113 | 18.71165 | 12599 ft | 368 kts | 121° |
| 2026-05-07 17:03 | 47.19213 | 18.74741 | 11895 ft | 375 kts | 105° |
| 2026-05-07 17:03 | 47.18945 | 18.78024 | 11531 ft | 372 kts | 93° |
| 2026-05-07 17:04 | 47.18991 | 18.81807 | 11067 ft | 367 kts | 91° |
| 2026-05-07 17:04 | 47.19033 | 18.85502 | 10609 ft | 363 kts | 91° |
| 2026-05-07 17:04 | 47.19068 | 18.89196 | 10403 ft | 351 kts | 91° |
| 2026-05-07 17:04 | 47.19098 | 18.92716 | 10277 ft | 337 kts | 91° |
| 2026-05-07 17:05 | 47.19127 | 18.96102 | 10159 ft | 325 kts | 92° |
| 2026-05-07 17:05 | 47.19215 | 18.99356 | 10009 ft | 316 kts | 82° |
| 2026-05-07 17:05 | 47.19970 | 19.02354 | 9635 ft | 315 kts | 57° |
| 2026-05-07 17:05 | 47.21391 | 19.04733 | 9223 ft | 314 kts | 43° |
| 2026-05-07 17:06 | 47.23051 | 19.06869 | 8852 ft | 311 kts | 39° |
| 2026-05-07 17:06 | 47.24703 | 19.08905 | 8489 ft | 308 kts | 39° |
| 2026-05-07 17:06 | 47.26325 | 19.10943 | 8128 ft | 306 kts | 40° |
| 2026-05-07 17:06 | 47.27901 | 19.12980 | 7770 ft | 304 kts | 41° |
| 2026-05-07 17:07 | 47.29471 | 19.15048 | 7423 ft | 301 kts | 41° |
| 2026-05-07 17:07 | 47.31022 | 19.17113 | 7081 ft | 298 kts | 42° |
| 2026-05-07 17:07 | 47.32297 | 19.19427 | 6946 ft | 286 kts | 66° |
| 2026-05-07 17:07 | 47.32752 | 19.22170 | 6834 ft | 268 kts | 95° |
| 2026-05-07 17:08 | 47.32342 | 19.24686 | 6678 ft | 249 kts | 123° |
| 2026-05-07 17:08 | 47.31265 | 19.26616 | 6308 ft | 241 kts | 141° |
| 2026-05-07 17:08 | 47.30044 | 19.28283 | 5980 ft | 238 kts | 142° |
| 2026-05-07 17:08 | 47.28857 | 19.29936 | 5673 ft | 237 kts | 140° |
| 2026-05-07 17:09 | 47.27662 | 19.31703 | 5375 ft | 239 kts | 139° |
| 2026-05-07 17:09 | 47.26518 | 19.33476 | 5086 ft | 239 kts | 137° |
| 2026-05-07 17:09 | 47.25772 | 19.34661 | 4914 ft | 237 kts | 137° |
| 2026-05-07 17:09 | 47.24295 | 19.37048 | 4525 ft | 237 kts | 133° |
| 2026-05-07 17:10 | 47.23741 | 19.38453 | 4340 ft | 242 kts | 112° |
| 2026-05-07 17:10 | 47.23593 | 19.40932 | 4050 ft | 249 kts | 81° |
| 2026-05-07 17:10 | 47.24313 | 19.43238 | 3769 ft | 252 kts | 50° |
| 2026-05-07 17:10 | 47.25569 | 19.45031 | 3478 ft | 251 kts | 41° |
| 2026-05-07 17:11 | 47.26895 | 19.46703 | 3188 ft | 251 kts | 40° |
| 2026-05-07 17:11 | 47.28309 | 19.48125 | 3010 ft | 241 kts | 17° |
| 2026-05-07 17:11 | 47.29887 | 19.48284 | 3001 ft | 214 kts | 336° |
| 2026-05-07 17:11 | 47.31028 | 19.47179 | 2997 ft | 184 kts | 310° |
| 2026-05-07 17:12 | 47.31893 | 19.45917 | 3007 ft | 165 kts | 308° |
| 2026-05-07 17:12 | 47.32648 | 19.44781 | 2992 ft | 146 kts | 307° |
| 2026-05-07 17:12 | 47.33335 | 19.43732 | 2995 ft | 142 kts | 306° |
| 2026-05-07 17:12 | 47.34020 | 19.42669 | 2926 ft | 144 kts | 305° |
| 2026-05-07 17:13 | 47.34707 | 19.41591 | 2743 ft | 144 kts | 305° |
| 2026-05-07 17:13 | 47.35383 | 19.40525 | 2556 ft | 140 kts | 306° |
| 2026-05-07 17:13 | 47.36049 | 19.39475 | 2374 ft | 142 kts | 306° |
| 2026-05-07 17:13 | 47.36727 | 19.38426 | 2183 ft | 140 kts | 305° |
| 2026-05-07 17:14 | 47.37381 | 19.37367 | 1995 ft | 140 kts | 305° |
| 2026-05-07 17:14 | 47.38041 | 19.36313 | 1827 ft | 140 kts | 307° |
| 2026-05-07 17:14 | 47.38707 | 19.35276 | 1677 ft | 139 kts | 307° |
| 2026-05-07 17:14 | 47.39361 | 19.34227 | 1460 ft | 139 kts | 306° |
| 2026-05-07 17:15 | 47.39867 | 19.33409 | 1273 ft | 136 kts | 306° |
| 2026-05-07 17:15 | 47.40513 | 19.32339 | 1057 ft | 135 kts | 305° |
| 2026-05-07 17:15 | 47.41121 | 19.31293 | 879 ft | 134 kts | 307° |
| 2026-05-07 17:15 | 47.41746 | 19.30263 | 686 ft | 134 kts | 309° |
| 2026-05-07 17:16 | 47.42377 | 19.29251 | 512 ft | 133 kts | 310° |
| 2026-05-07 17:16 | 47.42970 | 19.28291 | 457 ft | 109 kts | 312° |
| 2026-05-07 17:16 | 47.43370 | 19.27651 | 466 ft | 53 kts | 313° |
| 2026-05-07 17:16 | 47.43555 | 19.27355 | 470 ft | 35 kts | 311° |
| 2026-05-07 17:17 | 47.43666 | 19.27175 | 474 ft | 21 kts | 310° |
| 2026-05-07 17:17 | 47.43731 | 19.26980 | 469 ft | 22 kts | 289° |
| 2026-05-07 17:17 | 47.43767 | 19.26772 | 463 ft | 24 kts | 282° |
| 2026-05-07 17:17 | 47.43794 | 19.26594 | 458 ft | 11 kts | 282° |
| 2026-05-07 17:18 | 47.43799 | 19.26473 | 458 ft | 12 kts | 245° |
| 2026-05-07 17:18 | 47.43740 | 19.26401 | 457 ft | 12 kts | 217° |
| 2026-05-07 17:18 | 47.43713 | 19.26370 | 457 ft | 5 kts | 217° |
| 2026-05-07 17:18 | 47.43681 | 19.26332 | 457 ft | 7 kts | 222° |
| 2026-05-07 17:19 | 47.43643 | 19.26273 | 457 ft | 9 kts | 226° |
| 2026-05-07 17:19 | 47.43601 | 19.26212 | 455 ft | 5 kts | 224° |
| 2026-05-07 17:19 | 47.43568 | 19.26165 | 457 ft | 8 kts | 223° |
| 2026-05-07 17:19 | 47.43540 | 19.26128 | 457 ft | 3 kts | 220° |
| 2026-05-07 17:20 | 47.43526 | 19.26110 | 457 ft | 0 kts | 220° |
| 2026-05-07 17:20 | 47.43516 | 19.26098 | 457 ft | 6 kts | 220° |
| 2026-05-07 17:21 | 47.43473 | 19.26043 | 455 ft | 10 kts | 223° |
| 2026-05-07 17:21 | 47.43428 | 19.25981 | 455 ft | 9 kts | 224° |
| 2026-05-07 17:21 | 47.43439 | 19.25910 | 455 ft | 6 kts | 309° |
| 2026-05-07 17:21 | 47.43459 | 19.25878 | 457 ft | 0 kts | 313° |
| 2026-05-07 17:22 | 47.43466 | 19.25868 | 457 ft | 0 kts | 313° |
| 2026-05-07 17:22 | 47.43466 | 19.25867 | 457 ft | 0 kts | 313° |
| 2026-05-07 17:22 | 47.43486 | 19.25842 | 456 ft | 6 kts | 335° |
| 2026-05-07 17:23 | 47.43527 | 19.25879 | 456 ft | 9 kts | 44° |
| 2026-05-07 17:23 | 47.43563 | 19.25927 | 457 ft | 6 kts | 41° |
| 2026-05-07 17:23 | 47.43575 | 19.25942 | 457 ft | 2 kts | 41° |
| 2026-05-07 17:23 | 47.43591 | 19.25952 | 457 ft | 3 kts | 4° |
| 2026-05-07 17:24 | 47.43611 | 19.25933 | 456 ft | 3 kts | 320° |
| 2026-05-07 17:24 | 47.43619 | 19.25920 | 457 ft | 1 kts | 313° |
| 2026-05-07 17:24 | 47.43623 | 19.25913 | 457 ft | 1 kts | 313° |